Time;durP1;ratioP1;P1;durP2;ratioP2;P2;SDS_P1;SDS_P2;PMS_P1;PMS_P2;Temp;Humidity;BMP_temperature;BMP_pressure;BME280_temperature;BME280_humidity;BME280_pressure;Samples;Min_cycle;Max_cycle;Signal;HPM_P1;HPM_P2
2022/01/19 17:45:42;;;;;;;6.27;4.40;;;-3.00;99.90;;;;;;3857679;37;20066;-64
2022/01/19 17:49:21;;;;;;;6.50;4.35;;;-3.00;99.90;;;;;;4418526;32;20526;-64
2022/01/19 17:53:42;;;;;;;6.90;4.60;;;-3.00;99.90;;;;;;4418647;32;20073;-64
2022/01/19 17:56:09;;;;;;;6.05;4.12;;;-3.20;99.90;;;;;;4405575;32;20073;-64
2022/01/19 17:58:36;;;;;;;5.70;4.45;;;-3.10;99.90;;;;;;4418871;32;20093;-64
2022/01/19 18:01:03;;;;;;;6.65;4.45;;;-3.10;99.90;;;;;;4406165;32;20083;-64
2022/01/19 18:03:30;;;;;;;7.22;4.78;;;-3.10;99.90;;;;;;4419413;32;20081;-64
2022/01/19 18:05:56;;;;;;;6.68;4.57;;;-3.10;99.90;;;;;;4419849;32;20069;-65
2022/01/19 18:08:23;;;;;;;6.03;4.60;;;-3.20;99.90;;;;;;4417905;32;20153;-64
2022/01/19 18:10:49;;;;;;;6.32;4.72;;;-3.20;99.90;;;;;;4418343;32;20132;-64
2022/01/19 18:13:17;;;;;;;7.55;4.62;;;-3.20;99.90;;;;;;4419706;32;20161;-64
2022/01/19 18:15:44;;;;;;;7.28;4.70;;;-3.20;99.90;;;;;;4419267;32;20552;-64
2022/01/19 18:18:10;;;;;;;6.53;4.45;;;-3.10;99.90;;;;;;4418043;32;20177;-65
2022/01/19 18:20:36;;;;;;;7.18;4.32;;;-3.20;99.90;;;;;;4417952;32;20176;-63
2022/01/19 18:23:03;;;;;;;6.93;4.68;;;-3.20;99.90;;;;;;4417800;32;20092;-64
2022/01/19 18:25:29;;;;;;;7.00;4.75;;;-3.20;99.90;;;;;;4419355;32;20100;-63
2022/01/19 18:27:56;;;;;;;6.95;4.57;;;-3.20;99.90;;;;;;4417769;32;20169;-65
2022/01/19 18:30:24;;;;;;;7.10;5.18;;;-3.20;99.90;;;;;;4419529;32;20085;-64
2022/01/19 18:32:52;;;;;;;7.85;4.87;;;-3.20;99.90;;;;;;4417969;32;20104;-64
2022/01/19 18:35:20;;;;;;;6.47;4.80;;;-3.10;99.90;;;;;;4404747;32;20482;-63
2022/01/19 18:37:48;;;;;;;7.47;4.80;;;-3.20;99.90;;;;;;4405018;32;20125;-64
2022/01/19 18:40:16;;;;;;;7.47;4.35;;;-3.10;99.90;;;;;;4418070;32;20129;-65
2022/01/19 18:42:49;;;;;;;6.28;4.15;;;-3.20;99.90;;;;;;4404474;32;20511;-63
2022/01/19 18:45:16;;;;;;;5.85;4.22;;;-3.10;99.90;;;;;;4402266;32;20074;-64
2022/01/19 18:47:43;;;;;;;6.95;4.40;;;-3.20;99.90;;;;;;4415342;32;20076;-64
2022/01/19 18:50:10;;;;;;;6.87;5.10;;;-3.20;99.90;;;;;;4402722;32;20153;-65
2022/01/19 18:52:40;;;;;;;7.40;4.70;;;-3.20;99.90;;;;;;4401944;32;20062;-65
2022/01/19 18:55:09;;;;;;;6.60;4.40;;;-3.20;99.90;;;;;;4399189;32;20078;-64
2022/01/19 18:57:36;;;;;;;6.62;4.55;;;-3.20;99.90;;;;;;4392160;32;20069;-65
2022/01/19 19:00:11;;;;;;;7.50;4.87;;;-3.20;99.90;;;;;;4391966;32;20143;-64
2022/01/19 19:02:39;;;;;;;7.65;4.50;;;-3.10;99.90;;;;;;4392093;32;20092;-64
2022/01/19 19:05:07;;;;;;;7.30;5.00;;;-3.20;99.90;;;;;;4404361;32;20182;-64
2022/01/19 19:07:33;;;;;;;6.82;4.47;;;-3.20;99.90;;;;;;4379760;32;20078;-64
2022/01/19 19:12:29;;;;;;;7.18;4.80;;;-3.10;99.90;;;;;;4391983;32;20077;-64
2022/01/19 19:14:58;;;;;;;6.95;4.68;;;-3.10;99.90;;;;;;4392007;32;20092;-65
2022/01/19 19:17:26;;;;;;;6.68;4.40;;;-3.10;99.90;;;;;;4391596;32;20085;-65
2022/01/19 19:19:55;;;;;;;7.22;4.62;;;-3.10;99.90;;;;;;4393257;32;20146;-65
2022/01/19 19:22:23;;;;;;;6.60;4.35;;;-3.10;99.90;;;;;;4379329;32;20097;-65
2022/01/19 19:24:51;;;;;;;6.53;4.28;;;-3.10;99.90;;;;;;4391694;32;20073;-64
2022/01/19 19:27:20;;;;;;;6.90;4.00;;;-3.10;99.90;;;;;;4391654;32;20507;-64
2022/01/19 19:29:47;;;;;;;7.10;4.70;;;-3.10;99.90;;;;;;4379257;32;20483;-63
2022/01/19 19:32:14;;;;;;;6.90;4.62;;;-3.10;99.90;;;;;;4379199;32;20068;-64
2022/01/19 19:34:41;;;;;;;8.40;4.87;;;-3.10;99.90;;;;;;4392786;32;20069;-63
2022/01/19 19:37:07;;;;;;;6.93;4.37;;;-3.10;99.90;;;;;;4392427;32;20077;-63
2022/01/19 19:39:34;;;;;;;7.03;4.05;;;-3.10;99.90;;;;;;4379216;32;20393;-63
2022/01/19 19:42:01;;;;;;;7.22;4.18;;;-3.20;99.90;;;;;;4379359;32;20081;-63
2022/01/19 19:44:30;;;;;;;6.70;3.95;;;-3.20;99.90;;;;;;4392382;32;20449;-62
2022/01/19 19:46:57;;;;;;;7.37;5.15;;;-3.20;99.90;;;;;;4391616;32;20081;-65
2022/01/19 19:49:23;;;;;;;7.37;4.90;;;-3.20;99.90;;;;;;4391645;32;20076;-63
2022/01/19 19:51:50;;;;;;;6.78;4.32;;;-3.20;99.90;;;;;;4391278;32;20437;-65
2022/01/19 19:54:17;;;;;;;7.00;4.05;;;-3.10;99.90;;;;;;4391402;32;20588;-65
2022/01/19 19:56:44;;;;;;;7.28;4.95;;;-3.10;99.90;;;;;;4403755;32;20161;-62
2022/01/19 19:59:11;;;;;;;7.57;5.07;;;-3.20;99.90;;;;;;4378509;32;20139;-64
2022/01/19 20:01:39;;;;;;;6.47;4.43;;;-3.10;99.90;;;;;;4392684;32;20170;-65
2022/01/19 20:04:07;;;;;;;6.82;4.05;;;-3.10;99.90;;;;;;4391044;32;20445;-65
2022/01/19 20:06:34;;;;;;;6.95;4.32;;;-3.10;99.90;;;;;;4390916;32;20085;-64
2022/01/19 20:09:04;;;;;;;6.72;3.95;;;-3.10;99.90;;;;;;4390992;32;20066;-64
2022/01/19 20:11:33;;;;;;;6.55;4.10;;;-3.20;99.90;;;;;;4390923;32;20066;-65
2022/01/19 20:14:00;;;;;;;6.53;4.30;;;-3.20;99.90;;;;;;4391495;32;20176;-64
2022/01/19 20:16:27;;;;;;;6.53;4.60;;;-3.20;99.90;;;;;;4390961;32;20161;-63
2022/01/19 20:18:53;;;;;;;6.82;4.55;;;-3.30;99.90;;;;;;4391817;32;20093;-65
2022/01/19 20:21:22;;;;;;;6.03;4.12;;;-3.20;99.90;;;;;;4390665;32;20062;-64
2022/01/19 20:23:49;;;;;;;6.75;4.50;;;-3.20;99.90;;;;;;4378205;32;20070;-64
2022/01/19 20:26:16;;;;;;;7.05;4.47;;;-3.20;99.90;;;;;;4391105;32;20094;-63
2022/01/19 20:28:43;;;;;;;6.95;4.60;;;-3.30;99.90;;;;;;4392876;32;20128;-65
2022/01/19 20:31:14;;;;;;;6.25;4.60;;;-3.30;99.90;;;;;;4392144;32;20519;-65
2022/01/19 20:33:41;;;;;;;8.15;4.70;;;-3.30;99.90;;;;;;4378550;32;20089;-63
2022/01/19 20:36:09;;;;;;;6.93;5.07;;;-3.20;99.90;;;;;;4378305;32;20112;-64
2022/01/19 20:38:39;;;;;;;6.72;4.80;;;-3.30;99.90;;;;;;4378194;32;20166;-63
2022/01/19 20:41:10;;;;;;;7.70;4.75;;;-3.20;99.90;;;;;;4390284;32;20116;-64
2022/01/19 20:46:16;;;;;;;7.17;4.70;;;-3.30;99.90;;;;;;3857296;37;20061;-65
2022/01/19 20:48:43;;;;;;;6.82;4.18;;;-3.30;99.90;;;;;;4394146;32;20084;-63
2022/01/19 20:51:10;;;;;;;7.07;4.22;;;-3.40;99.90;;;;;;4406215;32;20089;-64
2022/01/19 20:53:36;;;;;;;7.53;4.60;;;-3.40;99.90;;;;;;4405458;32;20084;-63
2022/01/19 20:56:03;;;;;;;5.85;3.92;;;-3.40;99.90;;;;;;4405847;32;20087;-65
2022/01/19 20:58:29;;;;;;;8.13;4.85;;;-3.60;99.90;;;;;;4405360;32;20089;-65
2022/01/19 21:00:56;;;;;;;7.40;5.60;;;-3.60;99.90;;;;;;4393071;32;20569;-64
2022/01/19 21:03:23;;;;;;;6.95;4.43;;;-3.60;99.90;;;;;;4421096;32;20080;-65
2022/01/19 21:05:49;;;;;;;9.70;4.90;;;-3.60;99.90;;;;;;4396943;32;20089;-63
2022/01/19 21:08:16;;;;;;;7.32;4.93;;;-3.60;99.90;;;;;;4401364;32;20107;-63
2022/01/19 21:10:42;;;;;;;7.50;4.90;;;-3.60;99.90;;;;;;4414670;32;20065;-64
2022/01/19 21:13:09;;;;;;;6.78;4.30;;;-3.60;99.90;;;;;;4409743;32;20507;-65
2022/01/19 21:15:36;;;;;;;7.07;4.70;;;-3.70;99.90;;;;;;4393200;32;20058;-67
2022/01/19 21:18:03;;;;;;;7.97;4.80;;;-3.80;99.90;;;;;;4393160;32;20168;-64
2022/01/19 21:20:31;;;;;;;6.30;4.55;;;-3.80;99.90;;;;;;4393087;32;20086;-63
2022/01/19 21:22:58;;;;;;;7.37;4.28;;;-3.80;99.90;;;;;;4392675;32;20077;-63
2022/01/19 21:25:25;;;;;;;7.70;4.97;;;-3.80;99.90;;;;;;4405214;32;20093;-64
2022/01/19 21:27:51;;;;;;;8.02;4.72;;;-3.80;99.90;;;;;;4392969;32;20599;-64
2022/01/19 21:30:20;;;;;;;6.80;4.18;;;-3.80;99.90;;;;;;4419302;32;20077;-65
2022/01/19 21:32:49;;;;;;;6.57;4.43;;;-3.80;99.90;;;;;;4392912;32;20091;-64
2022/01/19 21:35:17;;;;;;;6.60;4.30;;;-3.90;99.90;;;;;;4393091;32;20082;-64
2022/01/19 21:37:45;;;;;;;6.70;3.92;;;-3.90;99.90;;;;;;4405163;32;20527;-64
2022/01/19 21:40:13;;;;;;;8.07;4.53;;;-4.00;99.90;;;;;;4393777;32;20492;-64
2022/01/19 21:42:39;;;;;;;6.43;4.35;;;-4.00;99.90;;;;;;4399609;32;20148;-64
2022/01/19 21:45:06;;;;;;;7.00;4.37;;;-4.00;99.90;;;;;;4402002;32;20152;-64
2022/01/19 21:47:33;;;;;;;8.00;4.70;;;-4.10;99.90;;;;;;4401981;32;20058;-63
2022/01/19 21:50:02;;;;;;;7.40;4.40;;;-4.00;99.90;;;;;;4385787;32;20085;-65
2022/01/19 21:52:30;;;;;;;7.10;4.43;;;-4.00;99.90;;;;;;4389831;32;20081;-65
2022/01/19 21:54:57;;;;;;;7.12;4.72;;;-4.00;99.90;;;;;;4403770;32;20089;-65
2022/01/19 21:57:24;;;;;;;7.45;3.90;;;-4.10;99.90;;;;;;4368617;32;20116;-63
2022/01/19 21:59:50;;;;;;;6.87;4.20;;;-4.00;99.90;;;;;;4367174;32;20094;-64
2022/01/19 22:02:17;;;;;;;7.78;4.37;;;-4.10;99.90;;;;;;4354489;32;20518;-64
2022/01/19 22:04:44;;;;;;;7.12;4.15;;;-4.10;99.90;;;;;;4379494;32;20077;-65
2022/01/19 22:07:10;;;;;;;5.12;3.08;;;-4.00;99.90;;;;;;4379340;32;20078;-64
2022/01/19 22:09:36;;;;;;;5.80;3.78;;;-4.10;99.90;;;;;;4379503;32;20094;-65
2022/01/19 22:12:03;;;;;;;7.07;4.62;;;-4.20;99.90;;;;;;4379104;32;20068;-64
2022/01/19 22:14:30;;;;;;;7.15;4.75;;;-4.10;99.90;;;;;;4392925;32;20062;-65
2022/01/19 22:16:56;;;;;;;5.65;3.97;;;-4.10;99.90;;;;;;4379277;32;20143;-64
2022/01/19 22:19:23;;;;;;;7.62;4.28;;;-4.20;99.90;;;;;;4379050;32;20166;-64
2022/01/19 22:21:53;;;;;;;6.07;3.97;;;-4.20;99.90;;;;;;4379110;32;20101;-63
2022/01/19 22:24:20;;;;;;;6.07;3.35;;;-4.20;99.90;;;;;;4367007;32;20101;-64
2022/01/19 22:26:47;;;;;;;6.78;4.15;;;-4.20;99.90;;;;;;4366600;32;20081;-64
2022/01/19 22:29:15;;;;;;;7.72;4.18;;;-4.20;99.90;;;;;;4366532;32;20074;-65
2022/01/19 22:31:41;;;;;;;6.90;3.80;;;-4.10;99.90;;;;;;4393172;32;20073;-64
2022/01/19 22:34:08;;;;;;;5.28;3.72;;;-4.10;99.90;;;;;;4378831;32;20455;-64
2022/01/19 22:36:34;;;;;;;6.43;4.03;;;-4.20;99.90;;;;;;4392976;32;20535;-66
2022/01/19 22:39:03;;;;;;;6.15;3.80;;;-4.20;99.90;;;;;;4379207;32;20077;-64
2022/01/19 22:41:29;;;;;;;6.18;4.18;;;-4.20;99.90;;;;;;4366828;32;20092;-64
2022/01/19 22:43:56;;;;;;;5.97;3.60;;;-4.20;99.90;;;;;;4378251;32;20469;-65
2022/01/19 22:46:22;;;;;;;5.68;3.53;;;-4.20;99.90;;;;;;4379013;32;20077;-64
2022/01/19 22:48:49;;;;;;;6.82;3.97;;;-4.20;99.90;;;;;;4378863;32;20077;-64
2022/01/19 22:51:15;;;;;;;6.85;4.00;;;-4.20;99.90;;;;;;4366311;32;20141;-64
2022/01/19 22:53:45;;;;;;;5.72;3.87;;;-4.20;99.90;;;;;;4379132;32;20084;-64
2022/01/19 22:56:12;;;;;;;6.30;3.60;;;-4.20;99.90;;;;;;4354133;32;20170;-64
2022/01/19 22:58:38;;;;;;;6.57;3.85;;;-4.20;99.90;;;;;;4378677;32;20062;-64
2022/01/19 23:01:05;;;;;;;6.15;3.42;;;-4.20;99.90;;;;;;4365966;32;20078;-64
2022/01/19 23:03:31;;;;;;;5.10;3.45;;;-4.20;99.90;;;;;;4378627;32;20082;-64
2022/01/19 23:05:57;;;;;;;5.00;3.30;;;-4.10;99.90;;;;;;4392410;32;20537;-65
2022/01/19 23:08:24;;;;;;;6.57;4.03;;;-4.00;99.90;;;;;;4391630;32;20066;-64
2022/01/19 23:10:50;;;;;;;5.12;3.53;;;-4.00;99.90;;;;;;4392282;32;20085;-64
2022/01/19 23:13:19;;;;;;;4.87;3.30;;;-4.00;99.90;;;;;;4378569;32;20082;-64
2022/01/19 23:15:46;;;;;;;4.97;3.40;;;-4.10;99.90;;;;;;4378473;32;20081;-64
2022/01/19 23:18:13;;;;;;;5.55;3.35;;;-4.10;99.90;;;;;;4378737;32;20082;-64
2022/01/19 23:20:40;;;;;;;4.93;3.20;;;-4.00;99.90;;;;;;4378677;32;20081;-65
2022/01/19 23:23:06;;;;;;;5.37;3.40;;;-4.00;99.90;;;;;;4365853;32;20089;-65
2022/01/19 23:25:33;;;;;;;5.70;3.70;;;-4.10;99.90;;;;;;4391915;32;20178;-64
2022/01/19 23:28:01;;;;;;;5.53;3.42;;;-4.00;99.90;;;;;;4392426;32;20092;-64
2022/01/19 23:30:27;;;;;;;6.25;3.85;;;-4.00;99.90;;;;;;4392273;32;20069;-64
2022/01/19 23:35:25;;;;;;;4.97;3.10;;;-3.90;99.90;;;;;;4378448;32;20097;-65
2022/01/19 23:38:07;;;;;;;5.37;3.58;;;-3.90;99.90;;;;;;4379073;32;20077;-64
2022/01/19 23:48:49;;;;;;;6.07;3.65;;;-3.80;99.90;;;;;;4392473;32;20061;-65
2022/01/19 23:51:15;;;;;;;5.53;3.78;;;-3.80;99.90;;;;;;4392180;32;20073;-64
2022/01/19 23:53:42;;;;;;;5.68;3.55;;;-3.80;99.90;;;;;;4378027;32;20093;-65
2022/01/19 23:56:10;;;;;;;4.78;3.30;;;-3.90;99.90;;;;;;4391800;32;20090;-64
2022/01/19 23:58:39;;;;;;;4.68;3.33;;;-3.80;99.90;;;;;;4377695;32;20520;-64
